SLC weather

Salt Lake City International Airport
Salt Lake City, Utah, United States

Public forecast

Using degrees Fahrenheit for public forecast. Weather courtesy of forecast.io.

METAR (pilot weather report)

Retrieved 2017/08/18 01:54 UTC (27 minutes ago):

KSLC 180154Z 03006KT 10SM CLR 31/03 A3006 RMK AO2 SLP122 T03060028

TAF (pilot weather forecast)

Forecast is more than 12 hours old.

Retrieved 2017/08/17 00:22 UTC (1 day ago):

TAF KSLC 172320Z 1800/1906 34009KT P6SM FEW120 FM180300 16006KT P6SM SKC FM181800 32006KT P6SM SKC FM190300 15006KT P6SM SKC